Aquebogue, NY (11931)

7:17 AM EST on February 10, 2016 (GMT -0500)
Riverhead | | Change Station
CLOSE
Current Station
Personal Weather Station
Location: Riverhead, NY
Elevation: 40 ft
Nearby Weather Stations

Elev 40 ft 40.94 °N, 72.67 °W | Updated 1 second ago

Overcast
Overcast
27.0 °F
Feels Like 27 °F
N
0.0
Wind Variable Wind from East
Gusts 0.0 mph

Today
High -- | Low -- °F
--% Chance of Precip.
Yesterday
High -- | Low -- °F
Precip. -- in
Pressure 29.62 in
Visibility 9.0 miles
Clouds Overcast 1500 ft
Windchill 27 °F
Dew Point 26 °F
Humidity 96%
Rainfall 0.00 in
Snow Depth Not available.
6:51 AM 5:18 PM
Waxing Crescent, 5% visible
METAR KFOK 101153Z 00000KT 9SM OVC015 M03/M03 A2961 RMK AO2 SNE28 SLP028 P0001 60001 70001 T10281028 11022 21050 50000
Pressure 29.62 in
Visibility 9.0 miles
Clouds Overcast 1500 ft
Windchill 27 °F
Dew Point 26 °F
Humidity 96%
Rainfall 0.00 in
Snow Depth Not available.
6:51 AM 5:18 PM
Waxing Crescent, 5% visible
METAR KFOK 101153Z 00000KT 9SM OVC015 M03/M03 A2961 RMK AO2 SNE28 SLP028 P0001 60001 70001 T10281028 11022 21050 50000

10-Day Weather Forecast

Almanac

Astronomy

Feb. 10, 2016 Rise Set
Actual Time
Civil Twilight
Nautical Twilight
Astronomical Twilight
Moon
Length of Visible Light
Length of Day
Tomorrow will be .
, % of the Moon is Illuminated

Today's Extremes

State Highs State Lows

Community

WunderPhotos

Upload Photos

1,891,834 photos uploaded!

WunderBlog® & News

Nearby

Air Quality

  Air Quality AQ Index Pollutant
Not available.

Snow Depth

Station Depth Elevation

Earthquake Activity

City Distance Mag. Time & Date
Minimum magnitude displayed is 2.5.

Coastal Water Temperatures

Place Temperature

Stations

Nearby Weather Stations

Station Location Temp. Windchill Dew Point Humidity Wind Precip. Elev Updated Type
                   

Watches & Warnings

There are currently no watches in effect.